sensor_id;sensor_type;location;lat;lon;timestamp;P1;durP1;ratioP1;P2;durP2;ratioP2
53646;SDS011;39550;52.230;5.194;2022-11-11T00:01:22;9.88;;;6.15;;
53646;SDS011;39550;52.230;5.194;2022-11-11T00:03:47;12.23;;;6.18;;
53646;SDS011;39550;52.230;5.194;2022-11-11T00:06:14;10.52;;;6.18;;
53646;SDS011;39550;52.230;5.194;2022-11-11T00:08:40;10.77;;;6.75;;
53646;SDS011;39550;52.230;5.194;2022-11-11T00:11:07;10.15;;;6.88;;
53646;SDS011;39550;52.230;5.194;2022-11-11T00:13:34;10.43;;;6.55;;
53646;SDS011;39550;52.230;5.194;2022-11-11T00:16:04;12.57;;;6.47;;
53646;SDS011;39550;52.230;5.194;2022-11-11T00:18:37;12.40;;;6.85;;
53646;SDS011;39550;52.230;5.194;2022-11-11T00:21:43;10.00;;;6.55;;
53646;SDS011;39550;52.230;5.194;2022-11-11T00:24:44;10.40;;;6.78;;
53646;SDS011;39550;52.230;5.194;2022-11-11T00:27:28;10.27;;;7.03;;
53646;SDS011;39550;52.230;5.194;2022-11-11T00:29:53;10.18;;;6.78;;
53646;SDS011;39550;52.230;5.194;2022-11-11T00:32:19;11.13;;;7.38;;
53646;SDS011;39550;52.230;5.194;2022-11-11T00:34:47;11.00;;;7.75;;
53646;SDS011;39550;52.230;5.194;2022-11-11T00:37:32;11.38;;;7.07;;
53646;SDS011;39550;52.230;5.194;2022-11-11T00:39:58;11.52;;;7.47;;
53646;SDS011;39550;52.230;5.194;2022-11-11T00:42:23;12.05;;;7.95;;
53646;SDS011;39550;52.230;5.194;2022-11-11T00:44:49;12.30;;;8.05;;
53646;SDS011;39550;52.230;5.194;2022-11-11T00:47:15;11.98;;;8.00;;
53646;SDS011;39550;52.230;5.194;2022-11-11T00:49:58;12.95;;;8.50;;
53646;SDS011;39550;52.230;5.194;2022-11-11T00:52:46;14.00;;;8.15;;
53646;SDS011;39550;52.230;5.194;2022-11-11T00:55:12;12.75;;;8.43;;
53646;SDS011;39550;52.230;5.194;2022-11-11T00:57:38;11.73;;;8.23;;
53646;SDS011;39550;52.230;5.194;2022-11-11T01:00:03;12.40;;;9.18;;
53646;SDS011;39550;52.230;5.194;2022-11-11T01:02:29;12.75;;;8.80;;
53646;SDS011;39550;52.230;5.194;2022-11-11T01:04:55;14.45;;;8.75;;
53646;SDS011;39550;52.230;5.194;2022-11-11T01:07:20;11.80;;;8.55;;
53646;SDS011;39550;52.230;5.194;2022-11-11T01:09:46;15.93;;;8.77;;
53646;SDS011;39550;52.230;5.194;2022-11-11T01:12:11;11.52;;;9.35;;
53646;SDS011;39550;52.230;5.194;2022-11-11T01:14:37;12.57;;;9.20;;
53646;SDS011;39550;52.230;5.194;2022-11-11T01:17:02;12.52;;;9.30;;
53646;SDS011;39550;52.230;5.194;2022-11-11T01:19:30;13.85;;;9.30;;
53646;SDS011;39550;52.230;5.194;2022-11-11T01:21:55;15.00;;;9.27;;
53646;SDS011;39550;52.230;5.194;2022-11-11T01:24:21;14.45;;;9.32;;
53646;SDS011;39550;52.230;5.194;2022-11-11T01:26:46;15.25;;;10.13;;
53646;SDS011;39550;52.230;5.194;2022-11-11T01:29:12;15.15;;;9.98;;
53646;SDS011;39550;52.230;5.194;2022-11-11T01:31:37;14.32;;;10.40;;
53646;SDS011;39550;52.230;5.194;2022-11-11T01:34:02;16.50;;;10.93;;
53646;SDS011;39550;52.230;5.194;2022-11-11T01:36:28;14.15;;;10.38;;
53646;SDS011;39550;52.230;5.194;2022-11-11T01:38:54;13.05;;;9.98;;
53646;SDS011;39550;52.230;5.194;2022-11-11T01:41:23;14.77;;;10.48;;
53646;SDS011;39550;52.230;5.194;2022-11-11T01:43:59;15.18;;;11.00;;
53646;SDS011;39550;52.230;5.194;2022-11-11T01:47:00;13.52;;;10.10;;
53646;SDS011;39550;52.230;5.194;2022-11-11T01:49:30;16.63;;;10.77;;
53646;SDS011;39550;52.230;5.194;2022-11-11T01:54:37;17.27;;;11.45;;
53646;SDS011;39550;52.230;5.194;2022-11-11T02:00:08;19.65;;;11.73;;
53646;SDS011;39550;52.230;5.194;2022-11-11T02:02:44;19.88;;;11.38;;
53646;SDS011;39550;52.230;5.194;2022-11-11T02:05:13;18.63;;;11.65;;
53646;SDS011;39550;52.230;5.194;2022-11-11T02:08:00;17.67;;;11.82;;
53646;SDS011;39550;52.230;5.194;2022-11-11T02:10:29;12.82;;;10.38;;
53646;SDS011;39550;52.230;5.194;2022-11-11T02:12:57;17.35;;;11.23;;
53646;SDS011;39550;52.230;5.194;2022-11-11T02:15:41;16.58;;;12.13;;
53646;SDS011;39550;52.230;5.194;2022-11-11T02:18:07;17.02;;;11.80;;
53646;SDS011;39550;52.230;5.194;2022-11-11T02:20:36;18.20;;;12.07;;
53646;SDS011;39550;52.230;5.194;2022-11-11T02:23:15;17.77;;;12.25;;
53646;SDS011;39550;52.230;5.194;2022-11-11T02:25:47;15.40;;;12.13;;
53646;SDS011;39550;52.230;5.194;2022-11-11T02:28:14;20.25;;;13.20;;
53646;SDS011;39550;52.230;5.194;2022-11-11T02:30:43;15.87;;;11.57;;
53646;SDS011;39550;52.230;5.194;2022-11-11T02:33:08;17.23;;;12.20;;
53646;SDS011;39550;52.230;5.194;2022-11-11T02:35:35;14.93;;;11.77;;
53646;SDS011;39550;52.230;5.194;2022-11-11T02:38:03;16.52;;;13.10;;
53646;SDS011;39550;52.230;5.194;2022-11-11T02:40:37;16.27;;;12.90;;
53646;SDS011;39550;52.230;5.194;2022-11-11T02:43:27;19.58;;;12.30;;
53646;SDS011;39550;52.230;5.194;2022-11-11T02:45:54;17.55;;;12.60;;
53646;SDS011;39550;52.230;5.194;2022-11-11T02:48:19;18.80;;;12.50;;
53646;SDS011;39550;52.230;5.194;2022-11-11T02:50:45;20.10;;;13.07;;
53646;SDS011;39550;52.230;5.194;2022-11-11T02:53:10;20.48;;;12.88;;
53646;SDS011;39550;52.230;5.194;2022-11-11T02:55:36;16.58;;;12.63;;
53646;SDS011;39550;52.230;5.194;2022-11-11T02:58:01;17.20;;;11.65;;
53646;SDS011;39550;52.230;5.194;2022-11-11T03:00:27;17.73;;;12.77;;
53646;SDS011;39550;52.230;5.194;2022-11-11T03:02:53;17.55;;;13.18;;
53646;SDS011;39550;52.230;5.194;2022-11-11T03:05:18;18.30;;;12.90;;
53646;SDS011;39550;52.230;5.194;2022-11-11T03:07:43;20.27;;;13.48;;
53646;SDS011;39550;52.230;5.194;2022-11-11T03:10:09;18.17;;;13.30;;
53646;SDS011;39550;52.230;5.194;2022-11-11T03:12:35;17.83;;;13.82;;
53646;SDS011;39550;52.230;5.194;2022-11-11T03:15:01;19.38;;;13.82;;
53646;SDS011;39550;52.230;5.194;2022-11-11T03:17:26;18.90;;;13.38;;
53646;SDS011;39550;52.230;5.194;2022-11-11T03:20:07;20.83;;;13.70;;
53646;SDS011;39550;52.230;5.194;2022-11-11T03:25:31;19.40;;;14.23;;
53646;SDS011;39550;52.230;5.194;2022-11-11T03:28:06;17.88;;;13.95;;
53646;SDS011;39550;52.230;5.194;2022-11-11T03:30:33;20.05;;;14.02;;
53646;SDS011;39550;52.230;5.194;2022-11-11T03:32:59;21.67;;;14.80;;
53646;SDS011;39550;52.230;5.194;2022-11-11T03:35:25;18.67;;;14.32;;
53646;SDS011;39550;52.230;5.194;2022-11-11T03:37:50;18.50;;;14.13;;
53646;SDS011;39550;52.230;5.194;2022-11-11T03:40:34;18.38;;;13.75;;
53646;SDS011;39550;52.230;5.194;2022-11-11T03:42:59;20.00;;;13.43;;
53646;SDS011;39550;52.230;5.194;2022-11-11T03:45:25;18.15;;;13.25;;
53646;SDS011;39550;52.230;5.194;2022-11-11T03:47:50;18.65;;;14.10;;
53646;SDS011;39550;52.230;5.194;2022-11-11T03:50:15;19.58;;;13.98;;
53646;SDS011;39550;52.230;5.194;2022-11-11T03:52:41;19.80;;;15.02;;
53646;SDS011;39550;52.230;5.194;2022-11-11T03:55:09;18.05;;;13.88;;
53646;SDS011;39550;52.230;5.194;2022-11-11T03:57:44;21.48;;;13.48;;
53646;SDS011;39550;52.230;5.194;2022-11-11T04:00:11;19.05;;;13.43;;
53646;SDS011;39550;52.230;5.194;2022-11-11T04:02:38;19.40;;;13.68;;
53646;SDS011;39550;52.230;5.194;2022-11-11T04:05:21;19.38;;;14.38;;
53646;SDS011;39550;52.230;5.194;2022-11-11T04:08:09;21.25;;;13.55;;
53646;SDS011;39550;52.230;5.194;2022-11-11T04:10:55;18.20;;;11.38;;
53646;SDS011;39550;52.230;5.194;2022-11-11T04:13:20;19.88;;;13.40;;
53646;SDS011;39550;52.230;5.194;2022-11-11T04:16:04;20.98;;;13.63;;
53646;SDS011;39550;52.230;5.194;2022-11-11T04:18:30;18.23;;;12.80;;
53646;SDS011;39550;52.230;5.194;2022-11-11T04:21:14;19.23;;;14.20;;
53646;SDS011;39550;52.230;5.194;2022-11-11T04:23:58;20.88;;;13.68;;
53646;SDS011;39550;52.230;5.194;2022-11-11T04:26:24;20.60;;;15.07;;
53646;SDS011;39550;52.230;5.194;2022-11-11T04:28:49;19.75;;;14.80;;
53646;SDS011;39550;52.230;5.194;2022-11-11T04:31:33;19.63;;;14.65;;
53646;SDS011;39550;52.230;5.194;2022-11-11T04:33:58;21.98;;;15.23;;
53646;SDS011;39550;52.230;5.194;2022-11-11T04:36:24;17.23;;;14.02;;
53646;SDS011;39550;52.230;5.194;2022-11-11T04:38:49;18.45;;;13.02;;
53646;SDS011;39550;52.230;5.194;2022-11-11T04:41:33;18.65;;;14.68;;
53646;SDS011;39550;52.230;5.194;2022-11-11T04:43:58;19.65;;;14.07;;
53646;SDS011;39550;52.230;5.194;2022-11-11T04:46:42;21.27;;;14.88;;
53646;SDS011;39550;52.230;5.194;2022-11-11T04:49:07;21.73;;;14.93;;
53646;SDS011;39550;52.230;5.194;2022-11-11T04:51:33;18.15;;;13.27;;
53646;SDS011;39550;52.230;5.194;2022-11-11T04:54:17;18.58;;;13.60;;
53646;SDS011;39550;52.230;5.194;2022-11-11T04:56:42;19.73;;;13.75;;
53646;SDS011;39550;52.230;5.194;2022-11-11T04:59:18;20.83;;;15.27;;
53646;SDS011;39550;52.230;5.194;2022-11-11T05:01:44;22.92;;;15.20;;
53646;SDS011;39550;52.230;5.194;2022-11-11T05:04:28;19.65;;;14.38;;
53646;SDS011;39550;52.230;5.194;2022-11-11T05:06:54;20.60;;;13.73;;
53646;SDS011;39550;52.230;5.194;2022-11-11T05:09:37;20.77;;;14.27;;
53646;SDS011;39550;52.230;5.194;2022-11-11T05:12:03;21.27;;;15.55;;
53646;SDS011;39550;52.230;5.194;2022-11-11T05:14:28;19.55;;;13.77;;
53646;SDS011;39550;52.230;5.194;2022-11-11T05:17:12;19.67;;;14.10;;
53646;SDS011;39550;52.230;5.194;2022-11-11T05:19:56;19.60;;;14.77;;
53646;SDS011;39550;52.230;5.194;2022-11-11T05:22:41;25.00;;;15.77;;
53646;SDS011;39550;52.230;5.194;2022-11-11T05:25:07;20.90;;;14.15;;
53646;SDS011;39550;52.230;5.194;2022-11-11T05:27:53;21.02;;;14.68;;
53646;SDS011;39550;52.230;5.194;2022-11-11T05:32:46;20.08;;;13.93;;
53646;SDS011;39550;52.230;5.194;2022-11-11T05:35:12;19.73;;;15.02;;
53646;SDS011;39550;52.230;5.194;2022-11-11T05:37:37;20.95;;;14.77;;
53646;SDS011;39550;52.230;5.194;2022-11-11T05:40:03;19.80;;;14.55;;
53646;SDS011;39550;52.230;5.194;2022-11-11T05:42:29;21.13;;;15.75;;
53646;SDS011;39550;52.230;5.194;2022-11-11T05:44:55;22.08;;;14.38;;
53646;SDS011;39550;52.230;5.194;2022-11-11T05:47:20;21.58;;;15.45;;
53646;SDS011;39550;52.230;5.194;2022-11-11T05:49:45;18.92;;;14.00;;
53646;SDS011;39550;52.230;5.194;2022-11-11T05:52:11;18.50;;;14.85;;
53646;SDS011;39550;52.230;5.194;2022-11-11T05:54:38;19.77;;;14.45;;
53646;SDS011;39550;52.230;5.194;2022-11-11T05:57:04;19.90;;;14.50;;
53646;SDS011;39550;52.230;5.194;2022-11-11T05:59:30;19.08;;;14.48;;
53646;SDS011;39550;52.230;5.194;2022-11-11T06:01:55;19.35;;;13.32;;
53646;SDS011;39550;52.230;5.194;2022-11-11T06:04:20;20.10;;;13.77;;
53646;SDS011;39550;52.230;5.194;2022-11-11T06:06:46;20.73;;;14.18;;
53646;SDS011;39550;52.230;5.194;2022-11-11T06:09:11;22.23;;;15.18;;
53646;SDS011;39550;52.230;5.194;2022-11-11T06:11:36;20.38;;;14.93;;
53646;SDS011;39550;52.230;5.194;2022-11-11T06:14:02;18.00;;;14.13;;
53646;SDS011;39550;52.230;5.194;2022-11-11T06:16:27;18.85;;;14.35;;
53646;SDS011;39550;52.230;5.194;2022-11-11T06:18:53;18.08;;;12.55;;
53646;SDS011;39550;52.230;5.194;2022-11-11T06:21:18;17.20;;;13.48;;
53646;SDS011;39550;52.230;5.194;2022-11-11T06:23:44;18.95;;;13.30;;
53646;SDS011;39550;52.230;5.194;2022-11-11T06:26:10;17.90;;;13.75;;
53646;SDS011;39550;52.230;5.194;2022-11-11T06:28:40;17.90;;;13.57;;
53646;SDS011;39550;52.230;5.194;2022-11-11T06:31:08;19.70;;;13.93;;
53646;SDS011;39550;52.230;5.194;2022-11-11T06:33:34;20.15;;;14.52;;
53646;SDS011;39550;52.230;5.194;2022-11-11T06:36:01;18.42;;;13.52;;
53646;SDS011;39550;52.230;5.194;2022-11-11T06:38:27;21.83;;;13.32;;
53646;SDS011;39550;52.230;5.194;2022-11-11T06:40:52;18.63;;;12.82;;
53646;SDS011;39550;52.230;5.194;2022-11-11T06:43:17;17.55;;;13.23;;
53646;SDS011;39550;52.230;5.194;2022-11-11T06:45:43;18.17;;;12.75;;
53646;SDS011;39550;52.230;5.194;2022-11-11T06:48:09;19.52;;;13.27;;
53646;SDS011;39550;52.230;5.194;2022-11-11T06:50:35;18.55;;;13.90;;
53646;SDS011;39550;52.230;5.194;2022-11-11T06:53:07;19.15;;;13.20;;
53646;SDS011;39550;52.230;5.194;2022-11-11T06:55:37;20.77;;;13.07;;
53646;SDS011;39550;52.230;5.194;2022-11-11T07:00:31;17.23;;;13.43;;
53646;SDS011;39550;52.230;5.194;2022-11-11T07:02:57;17.90;;;13.63;;
53646;SDS011;39550;52.230;5.194;2022-11-11T07:05:22;17.85;;;12.60;;
53646;SDS011;39550;52.230;5.194;2022-11-11T07:07:48;16.30;;;13.18;;
53646;SDS011;39550;52.230;5.194;2022-11-11T07:10:13;20.40;;;13.45;;
53646;SDS011;39550;52.230;5.194;2022-11-11T07:12:40;19.10;;;13.68;;
53646;SDS011;39550;52.230;5.194;2022-11-11T07:15:06;21.15;;;14.68;;
53646;SDS011;39550;52.230;5.194;2022-11-11T07:17:32;18.00;;;12.88;;
53646;SDS011;39550;52.230;5.194;2022-11-11T07:19:57;19.75;;;14.20;;
53646;SDS011;39550;52.230;5.194;2022-11-11T07:22:22;18.00;;;12.70;;
53646;SDS011;39550;52.230;5.194;2022-11-11T07:24:48;19.80;;;14.15;;
53646;SDS011;39550;52.230;5.194;2022-11-11T07:27:13;19.83;;;14.10;;
53646;SDS011;39550;52.230;5.194;2022-11-11T07:29:38;25.67;;;15.43;;
53646;SDS011;39550;52.230;5.194;2022-11-11T07:32:03;20.42;;;14.90;;
53646;SDS011;39550;52.230;5.194;2022-11-11T07:34:29;18.33;;;13.20;;
53646;SDS011;39550;52.230;5.194;2022-11-11T07:36:54;19.95;;;14.88;;
53646;SDS011;39550;52.230;5.194;2022-11-11T07:39:19;21.33;;;14.65;;
53646;SDS011;39550;52.230;5.194;2022-11-11T07:41:45;20.08;;;14.20;;
53646;SDS011;39550;52.230;5.194;2022-11-11T07:44:10;18.63;;;13.48;;
53646;SDS011;39550;52.230;5.194;2022-11-11T07:46:35;18.00;;;13.65;;
53646;SDS011;39550;52.230;5.194;2022-11-11T07:49:01;19.48;;;13.90;;
53646;SDS011;39550;52.230;5.194;2022-11-11T07:51:26;18.27;;;13.32;;
53646;SDS011;39550;52.230;5.194;2022-11-11T07:53:51;19.05;;;13.43;;
53646;SDS011;39550;52.230;5.194;2022-11-11T07:56:17;19.88;;;14.02;;
53646;SDS011;39550;52.230;5.194;2022-11-11T07:58:42;21.33;;;13.75;;
53646;SDS011;39550;52.230;5.194;2022-11-11T08:01:07;20.15;;;14.07;;
53646;SDS011;39550;52.230;5.194;2022-11-11T08:03:33;18.67;;;13.05;;
53646;SDS011;39550;52.230;5.194;2022-11-11T08:06:00;18.90;;;14.02;;
53646;SDS011;39550;52.230;5.194;2022-11-11T08:08:27;19.75;;;12.85;;
53646;SDS011;39550;52.230;5.194;2022-11-11T08:10:52;20.27;;;12.85;;
53646;SDS011;39550;52.230;5.194;2022-11-11T08:13:18;18.83;;;13.68;;
53646;SDS011;39550;52.230;5.194;2022-11-11T08:16:09;16.80;;;12.85;;
53646;SDS011;39550;52.230;5.194;2022-11-11T08:18:35;18.15;;;13.05;;
53646;SDS011;39550;52.230;5.194;2022-11-11T08:21:01;20.95;;;13.40;;
53646;SDS011;39550;52.230;5.194;2022-11-11T08:23:27;18.17;;;12.50;;
53646;SDS011;39550;52.230;5.194;2022-11-11T08:28:29;20.25;;;13.68;;
53646;SDS011;39550;52.230;5.194;2022-11-11T08:30:59;16.13;;;12.20;;
53646;SDS011;39550;52.230;5.194;2022-11-11T08:35:51;17.60;;;12.02;;
53646;SDS011;39550;52.230;5.194;2022-11-11T08:38:20;16.90;;;11.75;;
53646;SDS011;39550;52.230;5.194;2022-11-11T08:40:47;16.70;;;11.40;;
53646;SDS011;39550;52.230;5.194;2022-11-11T08:43:13;16.55;;;11.98;;
53646;SDS011;39550;52.230;5.194;2022-11-11T08:45:38;15.90;;;12.23;;
53646;SDS011;39550;52.230;5.194;2022-11-11T08:48:04;17.92;;;12.68;;
53646;SDS011;39550;52.230;5.194;2022-11-11T08:50:30;16.73;;;11.45;;
53646;SDS011;39550;52.230;5.194;2022-11-11T08:52:56;16.55;;;11.80;;
53646;SDS011;39550;52.230;5.194;2022-11-11T08:55:21;16.30;;;11.68;;
53646;SDS011;39550;52.230;5.194;2022-11-11T08:57:46;18.45;;;12.02;;
53646;SDS011;39550;52.230;5.194;2022-11-11T09:00:12;14.82;;;11.77;;
53646;SDS011;39550;52.230;5.194;2022-11-11T09:02:38;15.07;;;11.60;;
53646;SDS011;39550;52.230;5.194;2022-11-11T09:05:04;16.40;;;12.00;;
53646;SDS011;39550;52.230;5.194;2022-11-11T09:07:30;16.45;;;12.02;;
53646;SDS011;39550;52.230;5.194;2022-11-11T09:09:56;16.23;;;12.18;;
53646;SDS011;39550;52.230;5.194;2022-11-11T09:12:21;16.38;;;11.75;;
53646;SDS011;39550;52.230;5.194;2022-11-11T09:14:46;16.60;;;11.55;;
53646;SDS011;39550;52.230;5.194;2022-11-11T09:17:13;17.33;;;12.27;;
53646;SDS011;39550;52.230;5.194;2022-11-11T09:19:39;16.20;;;11.13;;
53646;SDS011;39550;52.230;5.194;2022-11-11T09:22:04;18.63;;;11.73;;
53646;SDS011;39550;52.230;5.194;2022-11-11T09:24:31;14.40;;;11.32;;
53646;SDS011;39550;52.230;5.194;2022-11-11T09:26:56;17.92;;;12.23;;
53646;SDS011;39550;52.230;5.194;2022-11-11T09:29:21;16.42;;;11.75;;
53646;SDS011;39550;52.230;5.194;2022-11-11T09:31:47;17.67;;;12.25;;
53646;SDS011;39550;52.230;5.194;2022-11-11T09:34:12;16.65;;;11.57;;
53646;SDS011;39550;52.230;5.194;2022-11-11T09:36:38;16.38;;;11.63;;
53646;SDS011;39550;52.230;5.194;2022-11-11T09:39:03;16.77;;;11.32;;
53646;SDS011;39550;52.230;5.194;2022-11-11T09:44:20;16.55;;;12.02;;
53646;SDS011;39550;52.230;5.194;2022-11-11T09:47:20;14.07;;;10.02;;
53646;SDS011;39550;52.230;5.194;2022-11-11T09:50:11;16.70;;;12.15;;
53646;SDS011;39550;52.230;5.194;2022-11-11T09:52:44;16.63;;;11.25;;
53646;SDS011;39550;52.230;5.194;2022-11-11T09:57:49;16.13;;;12.63;;
53646;SDS011;39550;52.230;5.194;2022-11-11T10:00:22;16.15;;;11.48;;
53646;SDS011;39550;52.230;5.194;2022-11-11T10:05:14;17.85;;;11.45;;
53646;SDS011;39550;52.230;5.194;2022-11-11T10:16:05;15.85;;;11.60;;
53646;SDS011;39550;52.230;5.194;2022-11-11T10:21:43;17.67;;;12.88;;
53646;SDS011;39550;52.230;5.194;2022-11-11T10:24:32;16.10;;;11.45;;
53646;SDS011;39550;52.230;5.194;2022-11-11T10:27:03;15.70;;;11.27;;
53646;SDS011;39550;52.230;5.194;2022-11-11T10:29:40;18.52;;;11.52;;
53646;SDS011;39550;52.230;5.194;2022-11-11T10:34:50;15.30;;;11.38;;
53646;SDS011;39550;52.230;5.194;2022-11-11T10:37:17;16.98;;;12.45;;
53646;SDS011;39550;52.230;5.194;2022-11-11T10:42:27;16.60;;;10.90;;
53646;SDS011;39550;52.230;5.194;2022-11-11T10:44:57;16.33;;;12.23;;
53646;SDS011;39550;52.230;5.194;2022-11-11T10:52:43;18.13;;;11.57;;
53646;SDS011;39550;52.230;5.194;2022-11-11T10:55:28;16.25;;;11.75;;
53646;SDS011;39550;52.230;5.194;2022-11-11T11:00:34;15.25;;;11.63;;
53646;SDS011;39550;52.230;5.194;2022-11-11T11:08:11;14.82;;;11.73;;
53646;SDS011;39550;52.230;5.194;2022-11-11T11:13:23;16.65;;;11.30;;
53646;SDS011;39550;52.230;5.194;2022-11-11T11:16:17;17.75;;;11.57;;
53646;SDS011;39550;52.230;5.194;2022-11-11T11:24:23;15.60;;;12.18;;
53646;SDS011;39550;52.230;5.194;2022-11-11T11:26:54;17.35;;;11.95;;
53646;SDS011;39550;52.230;5.194;2022-11-11T11:29:28;14.65;;;11.63;;
53646;SDS011;39550;52.230;5.194;2022-11-11T11:37:19;16.95;;;11.52;;
53646;SDS011;39550;52.230;5.194;2022-11-11T11:39:58;15.25;;;11.45;;
53646;SDS011;39550;52.230;5.194;2022-11-11T11:42:26;15.70;;;11.40;;
53646;SDS011;39550;52.230;5.194;2022-11-11T11:44:53;17.00;;;11.98;;
53646;SDS011;39550;52.230;5.194;2022-11-11T11:47:34;17.98;;;12.13;;
53646;SDS011;39550;52.230;5.194;2022-11-11T11:50:23;20.30;;;12.63;;
53646;SDS011;39550;52.230;5.194;2022-11-11T11:55:47;16.02;;;11.15;;
53646;SDS011;39550;52.230;5.194;2022-11-11T12:01:09;17.25;;;11.70;;
53646;SDS011;39550;52.230;5.194;2022-11-11T12:06:37;19.95;;;12.57;;
53646;SDS011;39550;52.230;5.194;2022-11-11T12:11:58;17.80;;;12.27;;
53646;SDS011;39550;52.230;5.194;2022-11-11T12:14:51;18.77;;;12.15;;
53646;SDS011;39550;52.230;5.194;2022-11-11T12:20:14;18.30;;;12.30;;
53646;SDS011;39550;52.230;5.194;2022-11-11T12:23:18;16.25;;;12.15;;
53646;SDS011;39550;52.230;5.194;2022-11-11T12:26:02;15.85;;;11.38;;
53646;SDS011;39550;52.230;5.194;2022-11-11T12:33:46;16.95;;;11.75;;
53646;SDS011;39550;52.230;5.194;2022-11-11T12:36:35;14.70;;;10.05;;
53646;SDS011;39550;52.230;5.194;2022-11-11T12:42:36;16.10;;;10.88;;
53646;SDS011;39550;52.230;5.194;2022-11-11T12:45:18;15.68;;;11.13;;
53646;SDS011;39550;52.230;5.194;2022-11-11T12:53:03;16.05;;;12.05;;
53646;SDS011;39550;52.230;5.194;2022-11-11T12:55:57;15.52;;;11.18;;
53646;SDS011;39550;52.230;5.194;2022-11-11T13:03:33;16.85;;;12.05;;
53646;SDS011;39550;52.230;5.194;2022-11-11T13:14:19;16.45;;;11.73;;
53646;SDS011;39550;52.230;5.194;2022-11-11T13:16:54;15.68;;;12.25;;
53646;SDS011;39550;52.230;5.194;2022-11-11T13:22:21;14.60;;;10.85;;
53646;SDS011;39550;52.230;5.194;2022-11-11T13:24:50;20.97;;;12.53;;
53646;SDS011;39550;52.230;5.194;2022-11-11T13:30:20;13.75;;;10.68;;
53646;SDS011;39550;52.230;5.194;2022-11-11T13:32:54;16.73;;;11.50;;
53646;SDS011;39550;52.230;5.194;2022-11-11T13:35:44;14.25;;;10.38;;
53646;SDS011;39550;52.230;5.194;2022-11-11T13:38:21;14.85;;;10.38;;
53646;SDS011;39550;52.230;5.194;2022-11-11T13:41:03;14.60;;;10.65;;
53646;SDS011;39550;52.230;5.194;2022-11-11T13:43:32;14.07;;;10.13;;
53646;SDS011;39550;52.230;5.194;2022-11-11T13:46:04;15.90;;;11.40;;
53646;SDS011;39550;52.230;5.194;2022-11-11T13:48:32;13.98;;;10.57;;
53646;SDS011;39550;52.230;5.194;2022-11-11T13:51:35;15.90;;;10.82;;
53646;SDS011;39550;52.230;5.194;2022-11-11T13:54:05;13.63;;;9.45;;
53646;SDS011;39550;52.230;5.194;2022-11-11T13:56:44;14.38;;;10.25;;
53646;SDS011;39550;52.230;5.194;2022-11-11T13:59:21;14.02;;;9.63;;
53646;SDS011;39550;52.230;5.194;2022-11-11T14:04:54;14.80;;;10.35;;
53646;SDS011;39550;52.230;5.194;2022-11-11T14:12:42;14.90;;;11.00;;
53646;SDS011;39550;52.230;5.194;2022-11-11T14:15:31;14.57;;;10.93;;
53646;SDS011;39550;52.230;5.194;2022-11-11T14:18:00;13.82;;;10.98;;
53646;SDS011;39550;52.230;5.194;2022-11-11T14:20:36;13.40;;;9.52;;
53646;SDS011;39550;52.230;5.194;2022-11-11T14:25:49;14.38;;;10.27;;
53646;SDS011;39550;52.230;5.194;2022-11-11T14:30:55;13.82;;;10.43;;
53646;SDS011;39550;52.230;5.194;2022-11-11T15:08:02;13.70;;;9.40;;
53646;SDS011;39550;52.230;5.194;2022-11-11T15:16:19;12.65;;;9.18;;
53646;SDS011;39550;52.230;5.194;2022-11-11T15:19:07;12.10;;;8.52;;
53646;SDS011;39550;52.230;5.194;2022-11-11T15:30:10;10.48;;;7.75;;
53646;SDS011;39550;52.230;5.194;2022-11-11T15:32:43;11.20;;;8.70;;
53646;SDS011;39550;52.230;5.194;2022-11-11T15:35:40;11.15;;;8.25;;
53646;SDS011;39550;52.230;5.194;2022-11-11T15:38:13;11.48;;;7.80;;
53646;SDS011;39550;52.230;5.194;2022-11-11T15:40:48;10.68;;;7.88;;
53646;SDS011;39550;52.230;5.194;2022-11-11T15:43:27;10.15;;;7.32;;
53646;SDS011;39550;52.230;5.194;2022-11-11T15:45:59;12.85;;;8.07;;
53646;SDS011;39550;52.230;5.194;2022-11-11T15:48:29;11.90;;;7.88;;
53646;SDS011;39550;52.230;5.194;2022-11-11T15:51:45;12.40;;;7.97;;
53646;SDS011;39550;52.230;5.194;2022-11-11T15:53:46;11.15;;;7.82;;
53646;SDS011;39550;52.230;5.194;2022-11-11T15:56:25;11.68;;;7.65;;
53646;SDS011;39550;52.230;5.194;2022-11-11T15:58:52;10.05;;;7.47;;
53646;SDS011;39550;52.230;5.194;2022-11-11T16:01:17;11.60;;;8.43;;
53646;SDS011;39550;52.230;5.194;2022-11-11T16:03:47;11.18;;;7.82;;
53646;SDS011;39550;52.230;5.194;2022-11-11T16:06:13;10.90;;;7.55;;
53646;SDS011;39550;52.230;5.194;2022-11-11T16:08:40;9.60;;;7.60;;
53646;SDS011;39550;52.230;5.194;2022-11-11T16:11:10;9.43;;;6.97;;
53646;SDS011;39550;52.230;5.194;2022-11-11T16:13:38;11.43;;;8.35;;
53646;SDS011;39550;52.230;5.194;2022-11-11T16:16:20;11.15;;;7.32;;
53646;SDS011;39550;52.230;5.194;2022-11-11T16:18:52;13.63;;;7.90;;
53646;SDS011;39550;52.230;5.194;2022-11-11T16:24:03;11.07;;;7.50;;
53646;SDS011;39550;52.230;5.194;2022-11-11T16:26:50;10.68;;;7.28;;
53646;SDS011;39550;52.230;5.194;2022-11-11T16:29:15;9.95;;;7.10;;
53646;SDS011;39550;52.230;5.194;2022-11-11T16:31:41;10.20;;;7.28;;
53646;SDS011;39550;52.230;5.194;2022-11-11T16:34:31;10.05;;;6.93;;
53646;SDS011;39550;52.230;5.194;2022-11-11T16:37:08;11.07;;;7.28;;
53646;SDS011;39550;52.230;5.194;2022-11-11T16:39:35;12.43;;;7.65;;
53646;SDS011;39550;52.230;5.194;2022-11-11T16:42:02;11.95;;;8.10;;
53646;SDS011;39550;52.230;5.194;2022-11-11T16:44:33;10.98;;;8.00;;
53646;SDS011;39550;52.230;5.194;2022-11-11T16:47:03;10.15;;;6.97;;
53646;SDS011;39550;52.230;5.194;2022-11-11T16:49:34;10.95;;;7.65;;
53646;SDS011;39550;52.230;5.194;2022-11-11T16:52:18;11.30;;;7.53;;
53646;SDS011;39550;52.230;5.194;2022-11-11T16:54:49;11.40;;;7.47;;
53646;SDS011;39550;52.230;5.194;2022-11-11T16:57:19;11.38;;;7.72;;
53646;SDS011;39550;52.230;5.194;2022-11-11T16:59:56;10.98;;;7.20;;
53646;SDS011;39550;52.230;5.194;2022-11-11T17:02:25;11.73;;;8.05;;
53646;SDS011;39550;52.230;5.194;2022-11-11T17:04:52;12.35;;;8.35;;
53646;SDS011;39550;52.230;5.194;2022-11-11T17:09:53;11.85;;;7.72;;
53646;SDS011;39550;52.230;5.194;2022-11-11T17:12:37;11.77;;;7.60;;
53646;SDS011;39550;52.230;5.194;2022-11-11T17:15:04;10.20;;;7.47;;
53646;SDS011;39550;52.230;5.194;2022-11-11T17:17:50;11.65;;;8.25;;
53646;SDS011;39550;52.230;5.194;2022-11-11T17:20:18;11.18;;;8.00;;
53646;SDS011;39550;52.230;5.194;2022-11-11T17:22:52;12.57;;;8.50;;
53646;SDS011;39550;52.230;5.194;2022-11-11T17:25:22;10.23;;;8.05;;
53646;SDS011;39550;52.230;5.194;2022-11-11T17:27:47;10.88;;;8.40;;
53646;SDS011;39550;52.230;5.194;2022-11-11T17:30:12;11.27;;;8.23;;
53646;SDS011;39550;52.230;5.194;2022-11-11T17:32:38;13.07;;;8.40;;
53646;SDS011;39550;52.230;5.194;2022-11-11T17:35:04;13.02;;;7.75;;
53646;SDS011;39550;52.230;5.194;2022-11-11T17:37:34;12.02;;;7.78;;
53646;SDS011;39550;52.230;5.194;2022-11-11T17:40:02;13.18;;;7.63;;
53646;SDS011;39550;52.230;5.194;2022-11-11T17:42:31;12.13;;;7.88;;
53646;SDS011;39550;52.230;5.194;2022-11-11T17:44:56;11.63;;;7.50;;
53646;SDS011;39550;52.230;5.194;2022-11-11T17:47:22;12.07;;;7.75;;
53646;SDS011;39550;52.230;5.194;2022-11-11T17:49:47;13.48;;;8.50;;
53646;SDS011;39550;52.230;5.194;2022-11-11T17:52:13;11.05;;;7.82;;